Three Bridges, New Jersey
Current Conditions -  °F | °C
As of 2:53 PM on Monday 24 Nov 2014 (Local Time) from KSMQ Reporting Station
Scattered Clouds Scattered Clouds  
Wind Chill: 72°   Ceiling: Unl
Heat Index: 72°   Visibility: 10mi
Dew Point: 55°   Wind: 18mph
Humidity: 55%   Direction: 200°SSW
Pressure: 29.55"   Gusts: 25mph
Location:  40.52°N, 74.8°W
Report Text: KSMQ 241953Z AUTO 20016G22KT 170V250 10SM SCT038 22/13 A2955 RMK AO2 SLP007 T02220128
Loading
Personal Weather Stations






























Interactive Weather Map New forecast layout! Learn more

10-Day Weather Forecast

Advertisements
Track Severe Weather on mobile